Hide A Way Lake, Texas
Current Conditions -  °F | °C
As of 5:53 AM on Friday 28 Nov 2014 (Local Time) from KTYR Reporting Station
Clear Clear  
Wind Chill: 34°   Ceiling: Unl
Heat Index: 39°   Visibility: 10mi
Dew Point: 32°   Wind: 7mph
Humidity: 76%   Direction: 170°S
Pressure: 30.32"   Gusts: NA
Location:  32.5326°N, 95.4249°W
Report Text: KTYR 281153Z 17006KT 10SM CLR 04/00 A3032 RMK AO2 SLP266 T00390000 10067 20039 56012
Loading
Personal Weather Stations






























Interactive Weather Map New forecast layout! Learn more

10-Day Weather Forecast

Advertisements
Track Severe Weather on mobile